sensor_id;sensor_type;location;lat;lon;timestamp;temperature;humidity
65582;DHT22;52231;40.090;18.348;2024-03-25T00:01:12;10.60;84.40
65582;DHT22;52231;40.090;18.348;2024-03-25T00:03:40;10.60;84.70
65582;DHT22;52231;40.090;18.348;2024-03-25T00:06:07;10.70;84.90
65582;DHT22;52231;40.090;18.348;2024-03-25T00:08:34;10.70;85.20
65582;DHT22;52231;40.090;18.348;2024-03-25T00:11:01;10.80;85.30
65582;DHT22;52231;40.090;18.348;2024-03-25T00:13:28;10.70;85.30
65582;DHT22;52231;40.090;18.348;2024-03-25T00:15:55;10.70;85.40
65582;DHT22;52231;40.090;18.348;2024-03-25T00:18:22;10.60;85.50
65582;DHT22;52231;40.090;18.348;2024-03-25T00:20:49;10.60;85.50
65582;DHT22;52231;40.090;18.348;2024-03-25T00:23:18;10.60;85.50
65582;DHT22;52231;40.090;18.348;2024-03-25T00:25:45;10.50;85.30
65582;DHT22;52231;40.090;18.348;2024-03-25T00:28:12;10.50;85.30
65582;DHT22;52231;40.090;18.348;2024-03-25T00:30:39;10.50;85.40
65582;DHT22;52231;40.090;18.348;2024-03-25T00:33:06;10.40;85.50
65582;DHT22;52231;40.090;18.348;2024-03-25T00:35:36;10.40;85.50
65582;DHT22;52231;40.090;18.348;2024-03-25T00:38:03;10.40;85.60
65582;DHT22;52231;40.090;18.348;2024-03-25T00:40:31;10.30;85.60
65582;DHT22;52231;40.090;18.348;2024-03-25T00:42:58;10.50;85.80
65582;DHT22;52231;40.090;18.348;2024-03-25T00:45:25;10.50;86.00
65582;DHT22;52231;40.090;18.348;2024-03-25T00:47:57;10.50;86.00
65582;DHT22;52231;40.090;18.348;2024-03-25T00:50:26;10.40;85.90
65582;DHT22;52231;40.090;18.348;2024-03-25T00:52:53;10.30;85.60
65582;DHT22;52231;40.090;18.348;2024-03-25T00:55:20;10.20;85.60
65582;DHT22;52231;40.090;18.348;2024-03-25T00:57:47;10.10;85.60
65582;DHT22;52231;40.090;18.348;2024-03-25T01:00:15;10.10;85.60
65582;DHT22;52231;40.090;18.348;2024-03-25T01:02:42;9.90;85.40
65582;DHT22;52231;40.090;18.348;2024-03-25T01:05:09;10.00;85.50
65582;DHT22;52231;40.090;18.348;2024-03-25T01:07:36;9.90;85.50
65582;DHT22;52231;40.090;18.348;2024-03-25T01:10:03;9.70;85.50
65582;DHT22;52231;40.090;18.348;2024-03-25T01:12:30;9.70;85.60
65582;DHT22;52231;40.090;18.348;2024-03-25T01:14:57;9.70;85.90
65582;DHT22;52231;40.090;18.348;2024-03-25T01:17:24;9.70;86.10
65582;DHT22;52231;40.090;18.348;2024-03-25T01:19:51;9.60;86.10
65582;DHT22;52231;40.090;18.348;2024-03-25T01:22:18;9.60;86.20
65582;DHT22;52231;40.090;18.348;2024-03-25T01:24:45;9.50;86.30
65582;DHT22;52231;40.090;18.348;2024-03-25T01:27:12;9.50;86.50
65582;DHT22;52231;40.090;18.348;2024-03-25T01:29:39;9.50;86.50
65582;DHT22;52231;40.090;18.348;2024-03-25T01:32:06;9.50;86.70
65582;DHT22;52231;40.090;18.348;2024-03-25T01:34:33;9.50;86.80
65582;DHT22;52231;40.090;18.348;2024-03-25T01:37:00;9.60;87.00
65582;DHT22;52231;40.090;18.348;2024-03-25T01:39:27;9.50;87.10
65582;DHT22;52231;40.090;18.348;2024-03-25T01:41:55;9.50;87.20
65582;DHT22;52231;40.090;18.348;2024-03-25T01:44:22;9.60;87.30
65582;DHT22;52231;40.090;18.348;2024-03-25T01:46:49;9.70;87.40
65582;DHT22;52231;40.090;18.348;2024-03-25T01:49:16;9.70;87.50
65582;DHT22;52231;40.090;18.348;2024-03-25T01:51:43;9.80;87.70
65582;DHT22;52231;40.090;18.348;2024-03-25T01:54:10;9.70;87.70
65582;DHT22;52231;40.090;18.348;2024-03-25T01:56:38;9.70;87.70
65582;DHT22;52231;40.090;18.348;2024-03-25T01:59:07;9.60;87.70
65582;DHT22;52231;40.090;18.348;2024-03-25T02:01:34;9.70;87.70
65582;DHT22;52231;40.090;18.348;2024-03-25T02:04:20;9.60;87.80
65582;DHT22;52231;40.090;18.348;2024-03-25T02:06:47;9.60;87.80
65582;DHT22;52231;40.090;18.348;2024-03-25T02:09:16;9.40;87.90
65582;DHT22;52231;40.090;18.348;2024-03-25T02:11:43;9.60;88.10
65582;DHT22;52231;40.090;18.348;2024-03-25T02:14:10;9.50;88.10
65582;DHT22;52231;40.090;18.348;2024-03-25T02:16:38;9.40;88.10
65582;DHT22;52231;40.090;18.348;2024-03-25T02:19:05;9.30;88.10
65582;DHT22;52231;40.090;18.348;2024-03-25T02:21:32;9.30;88.10
65582;DHT22;52231;40.090;18.348;2024-03-25T02:24:00;9.10;88.00
65582;DHT22;52231;40.090;18.348;2024-03-25T02:26:31;9.20;88.00
65582;DHT22;52231;40.090;18.348;2024-03-25T02:28:59;9.00;87.90
65582;DHT22;52231;40.090;18.348;2024-03-25T02:31:25;8.90;87.90
65582;DHT22;52231;40.090;18.348;2024-03-25T02:33:52;9.00;87.90
65582;DHT22;52231;40.090;18.348;2024-03-25T02:36:19;8.90;87.90
65582;DHT22;52231;40.090;18.348;2024-03-25T02:38:47;8.80;88.00
65582;DHT22;52231;40.090;18.348;2024-03-25T02:41:14;8.90;88.10
65582;DHT22;52231;40.090;18.348;2024-03-25T02:43:43;8.80;88.10
65582;DHT22;52231;40.090;18.348;2024-03-25T02:46:10;8.80;88.20
65582;DHT22;52231;40.090;18.348;2024-03-25T02:48:37;8.80;88.20
65582;DHT22;52231;40.090;18.348;2024-03-25T02:51:04;8.70;88.30
65582;DHT22;52231;40.090;18.348;2024-03-25T02:53:31;8.90;88.30
65582;DHT22;52231;40.090;18.348;2024-03-25T02:55:58;8.80;88.40
65582;DHT22;52231;40.090;18.348;2024-03-25T02:58:25;8.70;88.30
65582;DHT22;52231;40.090;18.348;2024-03-25T03:00:52;8.80;88.40
65582;DHT22;52231;40.090;18.348;2024-03-25T03:03:19;8.70;88.30
65582;DHT22;52231;40.090;18.348;2024-03-25T03:05:46;8.90;88.40
65582;DHT22;52231;40.090;18.348;2024-03-25T03:08:13;8.90;88.50
65582;DHT22;52231;40.090;18.348;2024-03-25T03:10:40;9.00;88.50
65582;DHT22;52231;40.090;18.348;2024-03-25T03:13:06;8.90;88.40
65582;DHT22;52231;40.090;18.348;2024-03-25T03:15:35;8.90;88.40
65582;DHT22;52231;40.090;18.348;2024-03-25T03:18:02;8.90;88.30
65582;DHT22;52231;40.090;18.348;2024-03-25T03:20:29;8.70;88.20
65582;DHT22;52231;40.090;18.348;2024-03-25T03:22:56;8.70;88.20
65582;DHT22;52231;40.090;18.348;2024-03-25T03:25:23;8.60;88.10
65582;DHT22;52231;40.090;18.348;2024-03-25T03:27:50;8.60;88.20
65582;DHT22;52231;40.090;18.348;2024-03-25T03:30:17;8.60;88.20
65582;DHT22;52231;40.090;18.348;2024-03-25T03:32:44;8.50;88.10
65582;DHT22;52231;40.090;18.348;2024-03-25T03:35:11;8.30;88.00
65582;DHT22;52231;40.090;18.348;2024-03-25T03:37:38;8.40;88.10
65582;DHT22;52231;40.090;18.348;2024-03-25T03:40:05;8.30;88.10
65582;DHT22;52231;40.090;18.348;2024-03-25T03:42:33;8.20;88.10
65582;DHT22;52231;40.090;18.348;2024-03-25T03:44:59;8.30;88.20
65582;DHT22;52231;40.090;18.348;2024-03-25T03:47:26;8.30;88.40
65582;DHT22;52231;40.090;18.348;2024-03-25T03:49:53;8.30;88.40
65582;DHT22;52231;40.090;18.348;2024-03-25T03:52:20;8.30;88.50
65582;DHT22;52231;40.090;18.348;2024-03-25T03:54:47;8.40;88.70
65582;DHT22;52231;40.090;18.348;2024-03-25T03:57:14;8.50;88.80
65582;DHT22;52231;40.090;18.348;2024-03-25T03:59:41;8.70;89.00
65582;DHT22;52231;40.090;18.348;2024-03-25T04:02:08;8.70;89.10
65582;DHT22;52231;40.090;18.348;2024-03-25T04:04:35;8.80;89.20
65582;DHT22;52231;40.090;18.348;2024-03-25T04:07:02;8.70;89.10
65582;DHT22;52231;40.090;18.348;2024-03-25T04:09:29;8.70;89.00
65582;DHT22;52231;40.090;18.348;2024-03-25T04:11:56;8.80;89.10
65582;DHT22;52231;40.090;18.348;2024-03-25T04:14:23;8.60;89.10
65582;DHT22;52231;40.090;18.348;2024-03-25T04:16:51;8.70;89.10
65582;DHT22;52231;40.090;18.348;2024-03-25T04:19:23;8.60;89.10
65582;DHT22;52231;40.090;18.348;2024-03-25T04:21:50;8.60;89.10
65582;DHT22;52231;40.090;18.348;2024-03-25T04:24:18;8.60;89.10
65582;DHT22;52231;40.090;18.348;2024-03-25T04:26:45;8.50;89.10
65582;DHT22;52231;40.090;18.348;2024-03-25T04:29:15;8.40;89.00
65582;DHT22;52231;40.090;18.348;2024-03-25T04:31:42;8.20;88.80
65582;DHT22;52231;40.090;18.348;2024-03-25T04:34:09;8.10;88.80
65582;DHT22;52231;40.090;18.348;2024-03-25T04:36:36;8.20;88.80
65582;DHT22;52231;40.090;18.348;2024-03-25T04:39:03;8.10;88.80
65582;DHT22;52231;40.090;18.348;2024-03-25T04:41:34;8.10;88.80
65582;DHT22;52231;40.090;18.348;2024-03-25T04:44:01;8.10;89.00
65582;DHT22;52231;40.090;18.348;2024-03-25T04:46:28;8.10;89.10
65582;DHT22;52231;40.090;18.348;2024-03-25T04:48:55;8.20;89.20
65582;DHT22;52231;40.090;18.348;2024-03-25T04:51:23;8.30;89.30
65582;DHT22;52231;40.090;18.348;2024-03-25T04:53:50;8.20;89.40
65582;DHT22;52231;40.090;18.348;2024-03-25T04:56:17;8.40;89.60
65582;DHT22;52231;40.090;18.348;2024-03-25T04:58:44;8.30;89.60
65582;DHT22;52231;40.090;18.348;2024-03-25T05:01:11;8.50;89.80
65582;DHT22;52231;40.090;18.348;2024-03-25T05:03:39;8.60;89.90
65582;DHT22;52231;40.090;18.348;2024-03-25T05:06:06;8.60;89.90
65582;DHT22;52231;40.090;18.348;2024-03-25T05:08:36;8.70;89.90
65582;DHT22;52231;40.090;18.348;2024-03-25T05:11:03;8.70;89.90
65582;DHT22;52231;40.090;18.348;2024-03-25T05:13:30;8.80;89.90
65582;DHT22;52231;40.090;18.348;2024-03-25T05:15:57;8.80;89.90
65582;DHT22;52231;40.090;18.348;2024-03-25T05:18:24;8.90;89.90
65582;DHT22;52231;40.090;18.348;2024-03-25T05:20:51;9.30;90.00
65582;DHT22;52231;40.090;18.348;2024-03-25T05:23:18;9.60;90.10
65582;DHT22;52231;40.090;18.348;2024-03-25T05:25:45;9.80;90.10
65582;DHT22;52231;40.090;18.348;2024-03-25T05:28:12;10.00;90.00
65582;DHT22;52231;40.090;18.348;2024-03-25T05:30:40;10.20;89.80
65582;DHT22;52231;40.090;18.348;2024-03-25T05:33:07;10.50;89.40
65582;DHT22;52231;40.090;18.348;2024-03-25T05:35:34;10.50;88.80
65582;DHT22;52231;40.090;18.348;2024-03-25T05:38:03;10.50;88.30
65582;DHT22;52231;40.090;18.348;2024-03-25T05:40:30;10.60;87.60
65582;DHT22;52231;40.090;18.348;2024-03-25T05:42:57;10.60;87.00
65582;DHT22;52231;40.090;18.348;2024-03-25T05:45:24;10.70;86.70
65582;DHT22;52231;40.090;18.348;2024-03-25T05:47:51;10.90;86.30
65582;DHT22;52231;40.090;18.348;2024-03-25T05:50:18;11.20;85.80
65582;DHT22;52231;40.090;18.348;2024-03-25T05:52:45;11.50;85.20
65582;DHT22;52231;40.090;18.348;2024-03-25T05:55:12;11.80;84.70
65582;DHT22;52231;40.090;18.348;2024-03-25T05:57:39;12.10;84.10
65582;DHT22;52231;40.090;18.348;2024-03-25T06:00:06;12.50;83.60
65582;DHT22;52231;40.090;18.348;2024-03-25T06:02:38;12.80;83.00
65582;DHT22;52231;40.090;18.348;2024-03-25T06:05:05;13.20;82.30
65582;DHT22;52231;40.090;18.348;2024-03-25T06:07:32;13.40;81.10
65582;DHT22;52231;40.090;18.348;2024-03-25T06:09:59;13.50;80.60
65582;DHT22;52231;40.090;18.348;2024-03-25T06:12:26;13.80;80.40
65582;DHT22;52231;40.090;18.348;2024-03-25T06:14:53;14.10;79.70
65582;DHT22;52231;40.090;18.348;2024-03-25T06:17:20;14.40;78.90
65582;DHT22;52231;40.090;18.348;2024-03-25T06:19:47;14.70;77.90
65582;DHT22;52231;40.090;18.348;2024-03-25T06:22:14;14.80;76.60
65582;DHT22;52231;40.090;18.348;2024-03-25T06:24:41;15.00;76.30
65582;DHT22;52231;40.090;18.348;2024-03-25T06:27:09;15.30;75.80
65582;DHT22;52231;40.090;18.348;2024-03-25T06:29:36;15.50;75.00
65582;DHT22;52231;40.090;18.348;2024-03-25T06:32:03;15.70;73.90
65582;DHT22;52231;40.090;18.348;2024-03-25T06:35:08;15.80;73.20
65582;DHT22;52231;40.090;18.348;2024-03-25T06:37:35;16.20;72.20
65582;DHT22;52231;40.090;18.348;2024-03-25T06:40:02;16.30;70.60
65582;DHT22;52231;40.090;18.348;2024-03-25T06:42:30;16.40;70.40
65582;DHT22;52231;40.090;18.348;2024-03-25T06:44:57;16.50;68.60
65582;DHT22;52231;40.090;18.348;2024-03-25T06:47:24;16.60;67.00
65582;DHT22;52231;40.090;18.348;2024-03-25T06:49:51;16.60;66.60
65582;DHT22;52231;40.090;18.348;2024-03-25T06:52:18;16.70;66.30
65582;DHT22;52231;40.090;18.348;2024-03-25T06:54:45;16.80;65.30
65582;DHT22;52231;40.090;18.348;2024-03-25T06:57:12;16.80;65.00
65582;DHT22;52231;40.090;18.348;2024-03-25T06:59:39;17.00;65.30
65582;DHT22;52231;40.090;18.348;2024-03-25T07:02:06;17.10;62.50
65582;DHT22;52231;40.090;18.348;2024-03-25T07:04:34;17.00;60.70
65582;DHT22;52231;40.090;18.348;2024-03-25T07:07:02;17.00;61.30
65582;DHT22;52231;40.090;18.348;2024-03-25T07:09:31;17.20;61.00
65582;DHT22;52231;40.090;18.348;2024-03-25T07:11:58;17.30;60.60
65582;DHT22;52231;40.090;18.348;2024-03-25T07:14:26;17.50;60.00
65582;DHT22;52231;40.090;18.348;2024-03-25T07:16:53;17.60;60.30
65582;DHT22;52231;40.090;18.348;2024-03-25T07:19:20;17.70;59.60
65582;DHT22;52231;40.090;18.348;2024-03-25T07:21:47;18.00;59.40
65582;DHT22;52231;40.090;18.348;2024-03-25T07:24:13;18.30;59.10
65582;DHT22;52231;40.090;18.348;2024-03-25T07:26:40;18.30;58.70
65582;DHT22;52231;40.090;18.348;2024-03-25T07:29:07;18.30;58.10
65582;DHT22;52231;40.090;18.348;2024-03-25T07:31:35;18.30;58.90
65582;DHT22;52231;40.090;18.348;2024-03-25T07:34:02;18.30;58.10
65582;DHT22;52231;40.090;18.348;2024-03-25T07:36:29;18.40;58.00
65582;DHT22;52231;40.090;18.348;2024-03-25T07:39:00;18.60;57.80
65582;DHT22;52231;40.090;18.348;2024-03-25T07:41:27;18.60;57.40
65582;DHT22;52231;40.090;18.348;2024-03-25T07:43:54;18.50;58.00
65582;DHT22;52231;40.090;18.348;2024-03-25T07:46:21;18.50;58.00
65582;DHT22;52231;40.090;18.348;2024-03-25T07:48:48;18.60;57.90
65582;DHT22;52231;40.090;18.348;2024-03-25T07:51:15;18.50;57.80
65582;DHT22;52231;40.090;18.348;2024-03-25T07:53:42;18.40;58.90
65582;DHT22;52231;40.090;18.348;2024-03-25T07:56:09;18.50;58.60
65582;DHT22;52231;40.090;18.348;2024-03-25T07:58:36;18.50;58.70
65582;DHT22;52231;40.090;18.348;2024-03-25T08:01:03;18.50;58.20
65582;DHT22;52231;40.090;18.348;2024-03-25T08:03:30;18.90;57.90
65582;DHT22;52231;40.090;18.348;2024-03-25T08:05:57;19.30;56.20
65582;DHT22;52231;40.090;18.348;2024-03-25T08:08:24;19.40;54.30
65582;DHT22;52231;40.090;18.348;2024-03-25T08:10:51;19.60;54.40
65582;DHT22;52231;40.090;18.348;2024-03-25T08:13:19;19.90;54.10
65582;DHT22;52231;40.090;18.348;2024-03-25T08:15:49;20.40;52.30
65582;DHT22;52231;40.090;18.348;2024-03-25T08:18:16;20.30;50.90
65582;DHT22;52231;40.090;18.348;2024-03-25T08:20:43;20.20;50.60
65582;DHT22;52231;40.090;18.348;2024-03-25T08:23:10;20.20;50.20
65582;DHT22;52231;40.090;18.348;2024-03-25T08:25:37;19.90;48.50
65582;DHT22;52231;40.090;18.348;2024-03-25T08:28:04;19.70;49.50
65582;DHT22;52231;40.090;18.348;2024-03-25T08:30:31;19.70;49.20
65582;DHT22;52231;40.090;18.348;2024-03-25T08:32:58;19.70;49.30
65582;DHT22;52231;40.090;18.348;2024-03-25T08:35:25;19.80;48.60
65582;DHT22;52231;40.090;18.348;2024-03-25T08:37:52;19.90;48.20
65582;DHT22;52231;40.090;18.348;2024-03-25T08:40:19;20.00;48.20
65582;DHT22;52231;40.090;18.348;2024-03-25T08:42:46;20.00;47.90
65582;DHT22;52231;40.090;18.348;2024-03-25T08:45:13;19.80;47.20
65582;DHT22;52231;40.090;18.348;2024-03-25T08:47:40;19.80;47.80
65582;DHT22;52231;40.090;18.348;2024-03-25T08:50:09;20.00;46.00
65582;DHT22;52231;40.090;18.348;2024-03-25T08:52:36;20.10;46.10
65582;DHT22;52231;40.090;18.348;2024-03-25T08:55:03;20.00;45.00
65582;DHT22;52231;40.090;18.348;2024-03-25T08:57:30;20.00;44.80
65582;DHT22;52231;40.090;18.348;2024-03-25T08:59:57;20.20;45.10
65582;DHT22;52231;40.090;18.348;2024-03-25T09:02:24;20.30;45.00
65582;DHT22;52231;40.090;18.348;2024-03-25T09:04:51;20.30;44.90
65582;DHT22;52231;40.090;18.348;2024-03-25T09:07:19;20.40;44.30
65582;DHT22;52231;40.090;18.348;2024-03-25T09:09:46;20.50;43.90
65582;DHT22;52231;40.090;18.348;2024-03-25T09:12:31;20.60;43.20
65582;DHT22;52231;40.090;18.348;2024-03-25T09:14:58;20.60;44.10
65582;DHT22;52231;40.090;18.348;2024-03-25T09:17:25;20.90;43.80
65582;DHT22;52231;40.090;18.348;2024-03-25T09:19:52;21.20;43.30
65582;DHT22;52231;40.090;18.348;2024-03-25T09:22:19;21.50;42.00
65582;DHT22;52231;40.090;18.348;2024-03-25T09:24:46;21.80;42.90
65582;DHT22;52231;40.090;18.348;2024-03-25T09:27:13;21.80;41.50
65582;DHT22;52231;40.090;18.348;2024-03-25T09:29:42;21.80;40.50
65582;DHT22;52231;40.090;18.348;2024-03-25T09:32:09;21.80;39.90
65582;DHT22;52231;40.090;18.348;2024-03-25T09:34:36;21.80;40.50
65582;DHT22;52231;40.090;18.348;2024-03-25T09:37:03;21.90;40.60
65582;DHT22;52231;40.090;18.348;2024-03-25T09:39:30;21.90;40.00
65582;DHT22;52231;40.090;18.348;2024-03-25T09:41:57;21.90;39.70
65582;DHT22;52231;40.090;18.348;2024-03-25T09:44:29;22.10;40.30
65582;DHT22;52231;40.090;18.348;2024-03-25T09:46:58;22.30;40.20
65582;DHT22;52231;40.090;18.348;2024-03-25T09:49:27;22.80;39.00
65582;DHT22;52231;40.090;18.348;2024-03-25T09:51:55;23.30;37.40
65582;DHT22;52231;40.090;18.348;2024-03-25T09:54:22;23.90;37.70
65582;DHT22;52231;40.090;18.348;2024-03-25T09:56:49;23.80;38.40
65582;DHT22;52231;40.090;18.348;2024-03-25T09:59:18;23.10;39.80
65582;DHT22;52231;40.090;18.348;2024-03-25T10:01:45;23.50;39.20
65582;DHT22;52231;40.090;18.348;2024-03-25T10:04:12;23.70;39.20
65582;DHT22;52231;40.090;18.348;2024-03-25T10:06:40;22.80;40.30
65582;DHT22;52231;40.090;18.348;2024-03-25T10:09:07;22.00;41.20
65582;DHT22;52231;40.090;18.348;2024-03-25T10:11:34;21.90;42.50
65582;DHT22;52231;40.090;18.348;2024-03-25T10:14:02;22.10;41.00
65582;DHT22;52231;40.090;18.348;2024-03-25T10:16:29;22.70;40.50
65582;DHT22;52231;40.090;18.348;2024-03-25T10:18:57;23.40;40.30
65582;DHT22;52231;40.090;18.348;2024-03-25T10:21:24;23.10;40.60
65582;DHT22;52231;40.090;18.348;2024-03-25T10:23:52;22.50;40.70
65582;DHT22;52231;40.090;18.348;2024-03-25T10:26:31;21.90;41.00
65582;DHT22;52231;40.090;18.348;2024-03-25T10:29:03;21.70;42.20
65582;DHT22;52231;40.090;18.348;2024-03-25T10:31:31;22.20;41.60
65582;DHT22;52231;40.090;18.348;2024-03-25T10:33:58;22.20;42.20
65582;DHT22;52231;40.090;18.348;2024-03-25T10:36:25;22.80;41.10
65582;DHT22;52231;40.090;18.348;2024-03-25T10:38:55;23.30;39.20
65582;DHT22;52231;40.090;18.348;2024-03-25T10:41:23;23.20;38.70
65582;DHT22;52231;40.090;18.348;2024-03-25T10:43:54;22.80;38.90
65582;DHT22;52231;40.090;18.348;2024-03-25T10:46:23;22.30;39.50
65582;DHT22;52231;40.090;18.348;2024-03-25T10:51:20;22.30;38.80
65582;DHT22;52231;40.090;18.348;2024-03-25T10:53:52;21.70;40.30
65582;DHT22;52231;40.090;18.348;2024-03-25T10:56:22;21.80;40.80
65582;DHT22;52231;40.090;18.348;2024-03-25T10:58:49;22.40;40.10
65582;DHT22;52231;40.090;18.348;2024-03-25T11:01:20;23.10;39.40
65582;DHT22;52231;40.090;18.348;2024-03-25T11:03:49;22.60;38.30
65582;DHT22;52231;40.090;18.348;2024-03-25T11:06:16;21.90;38.50
65582;DHT22;52231;40.090;18.348;2024-03-25T11:08:43;21.90;38.80
65582;DHT22;52231;40.090;18.348;2024-03-25T11:11:13;22.30;37.70
65582;DHT22;52231;40.090;18.348;2024-03-25T11:13:42;22.90;35.60
65582;DHT22;52231;40.090;18.348;2024-03-25T11:16:09;23.60;35.70
65582;DHT22;52231;40.090;18.348;2024-03-25T11:18:38;24.40;34.20
65582;DHT22;52231;40.090;18.348;2024-03-25T11:21:08;24.90;34.90
65582;DHT22;52231;40.090;18.348;2024-03-25T11:23:42;24.80;34.70
65582;DHT22;52231;40.090;18.348;2024-03-25T11:26:19;24.30;34.10
65582;DHT22;52231;40.090;18.348;2024-03-25T11:28:46;24.20;33.30
65582;DHT22;52231;40.090;18.348;2024-03-25T11:31:14;23.80;32.90
65582;DHT22;52231;40.090;18.348;2024-03-25T11:33:41;23.20;33.10
65582;DHT22;52231;40.090;18.348;2024-03-25T11:36:09;23.30;33.10
65582;DHT22;52231;40.090;18.348;2024-03-25T11:38:37;23.90;34.40
65582;DHT22;52231;40.090;18.348;2024-03-25T11:41:07;24.30;33.20
65582;DHT22;52231;40.090;18.348;2024-03-25T11:43:34;23.70;33.70
65582;DHT22;52231;40.090;18.348;2024-03-25T11:46:01;23.10;34.10
65582;DHT22;52231;40.090;18.348;2024-03-25T11:48:29;23.30;34.30
65582;DHT22;52231;40.090;18.348;2024-03-25T11:50:56;23.70;33.60
65582;DHT22;52231;40.090;18.348;2024-03-25T11:53:23;23.80;33.10
65582;DHT22;52231;40.090;18.348;2024-03-25T11:55:51;23.90;32.10
65582;DHT22;52231;40.090;18.348;2024-03-25T11:58:18;23.90;32.40
65582;DHT22;52231;40.090;18.348;2024-03-25T12:00:47;23.90;32.30
65582;DHT22;52231;40.090;18.348;2024-03-25T12:03:21;23.90;31.60
65582;DHT22;52231;40.090;18.348;2024-03-25T12:05:48;24.00;32.40
65582;DHT22;52231;40.090;18.348;2024-03-25T12:08:15;23.90;36.20
65582;DHT22;52231;40.090;18.348;2024-03-25T12:10:41;23.40;36.10
65582;DHT22;52231;40.090;18.348;2024-03-25T12:13:27;22.50;37.10
65582;DHT22;52231;40.090;18.348;2024-03-25T12:15:54;22.30;37.70
65582;DHT22;52231;40.090;18.348;2024-03-25T12:18:22;22.60;36.40
65582;DHT22;52231;40.090;18.348;2024-03-25T12:20:49;22.90;36.40
65582;DHT22;52231;40.090;18.348;2024-03-25T12:23:16;22.90;36.70
65582;DHT22;52231;40.090;18.348;2024-03-25T12:25:51;22.90;37.40
65582;DHT22;52231;40.090;18.348;2024-03-25T12:28:18;22.70;35.60
65582;DHT22;52231;40.090;18.348;2024-03-25T12:30:53;22.60;35.40
65582;DHT22;52231;40.090;18.348;2024-03-25T12:33:22;22.00;35.80
65582;DHT22;52231;40.090;18.348;2024-03-25T12:35:50;21.90;38.00
65582;DHT22;52231;40.090;18.348;2024-03-25T12:38:25;22.10;38.00
65582;DHT22;52231;40.090;18.348;2024-03-25T12:40:53;22.10;36.90
65582;DHT22;52231;40.090;18.348;2024-03-25T12:43:21;22.00;37.20
65582;DHT22;52231;40.090;18.348;2024-03-25T12:45:47;21.90;37.30
65582;DHT22;52231;40.090;18.348;2024-03-25T12:48:15;21.90;42.30
65582;DHT22;52231;40.090;18.348;2024-03-25T12:50:42;21.80;44.00
65582;DHT22;52231;40.090;18.348;2024-03-25T12:53:18;21.10;44.50
65582;DHT22;52231;40.090;18.348;2024-03-25T12:55:48;20.60;45.90
65582;DHT22;52231;40.090;18.348;2024-03-25T12:58:15;20.40;46.40
65582;DHT22;52231;40.090;18.348;2024-03-25T13:00:42;20.50;47.30
65582;DHT22;52231;40.090;18.348;2024-03-25T13:03:10;20.50;46.70
65582;DHT22;52231;40.090;18.348;2024-03-25T13:05:37;20.40;46.60
65582;DHT22;52231;40.090;18.348;2024-03-25T13:08:04;20.70;49.00
65582;DHT22;52231;40.090;18.348;2024-03-25T13:10:31;20.80;47.70
65582;DHT22;52231;40.090;18.348;2024-03-25T13:13:01;20.40;47.20
65582;DHT22;52231;40.090;18.348;2024-03-25T13:15:29;20.20;47.70
65582;DHT22;52231;40.090;18.348;2024-03-25T13:17:56;20.00;48.30
65582;DHT22;52231;40.090;18.348;2024-03-25T13:20:23;20.00;49.00
65582;DHT22;52231;40.090;18.348;2024-03-25T13:22:53;20.10;49.00
65582;DHT22;52231;40.090;18.348;2024-03-25T13:25:24;20.30;48.30
65582;DHT22;52231;40.090;18.348;2024-03-25T13:27:50;20.60;47.60
65582;DHT22;52231;40.090;18.348;2024-03-25T13:30:17;21.00;46.50
65582;DHT22;52231;40.090;18.348;2024-03-25T13:33:00;20.90;46.30
65582;DHT22;52231;40.090;18.348;2024-03-25T13:35:27;20.50;47.20
65582;DHT22;52231;40.090;18.348;2024-03-25T13:37:54;20.30;47.30
65582;DHT22;52231;40.090;18.348;2024-03-25T13:40:21;19.90;48.20
65582;DHT22;52231;40.090;18.348;2024-03-25T13:42:48;19.80;47.90
65582;DHT22;52231;40.090;18.348;2024-03-25T13:45:16;19.50;48.50
65582;DHT22;52231;40.090;18.348;2024-03-25T13:47:43;19.20;48.80
65582;DHT22;52231;40.090;18.348;2024-03-25T13:50:10;18.80;48.50
65582;DHT22;52231;40.090;18.348;2024-03-25T13:52:37;18.80;50.10
65582;DHT22;52231;40.090;18.348;2024-03-25T13:55:05;18.80;50.20
65582;DHT22;52231;40.090;18.348;2024-03-25T13:57:32;19.10;50.40
65582;DHT22;52231;40.090;18.348;2024-03-25T13:59:59;19.10;47.80
65582;DHT22;52231;40.090;18.348;2024-03-25T14:02:27;19.10;48.10
65582;DHT22;52231;40.090;18.348;2024-03-25T14:04:55;19.10;48.20
65582;DHT22;52231;40.090;18.348;2024-03-25T14:07:22;19.00;48.30
65582;DHT22;52231;40.090;18.348;2024-03-25T14:09:49;18.90;48.10
65582;DHT22;52231;40.090;18.348;2024-03-25T14:12:16;18.80;48.40
65582;DHT22;52231;40.090;18.348;2024-03-25T14:14:44;18.80;49.10
65582;DHT22;52231;40.090;18.348;2024-03-25T14:17:11;18.80;49.70
65582;DHT22;52231;40.090;18.348;2024-03-25T14:19:38;18.70;47.60
65582;DHT22;52231;40.090;18.348;2024-03-25T14:22:05;18.90;47.40
65582;DHT22;52231;40.090;18.348;2024-03-25T14:24:32;19.00;46.50
65582;DHT22;52231;40.090;18.348;2024-03-25T14:26:59;18.80;46.50
65582;DHT22;52231;40.090;18.348;2024-03-25T14:29:26;18.50;45.60
65582;DHT22;52231;40.090;18.348;2024-03-25T14:31:53;18.20;46.00
65582;DHT22;52231;40.090;18.348;2024-03-25T14:34:20;17.90;45.10
65582;DHT22;52231;40.090;18.348;2024-03-25T14:36:47;17.80;46.20
65582;DHT22;52231;40.090;18.348;2024-03-25T14:39:16;18.00;46.90
65582;DHT22;52231;40.090;18.348;2024-03-25T14:41:43;18.10;46.00
65582;DHT22;52231;40.090;18.348;2024-03-25T14:44:10;18.30;46.20
65582;DHT22;52231;40.090;18.348;2024-03-25T14:46:37;18.30;46.20
65582;DHT22;52231;40.090;18.348;2024-03-25T14:49:04;18.30;47.80
65582;DHT22;52231;40.090;18.348;2024-03-25T14:51:31;18.20;47.20
65582;DHT22;52231;40.090;18.348;2024-03-25T14:54:00;17.80;46.10
65582;DHT22;52231;40.090;18.348;2024-03-25T14:56:27;17.50;48.00
65582;DHT22;52231;40.090;18.348;2024-03-25T14:58:55;17.20;48.10
65582;DHT22;52231;40.090;18.348;2024-03-25T15:01:22;17.00;48.90
65582;DHT22;52231;40.090;18.348;2024-03-25T15:03:49;16.80;50.80
65582;DHT22;52231;40.090;18.348;2024-03-25T15:06:16;16.80;51.60
65582;DHT22;52231;40.090;18.348;2024-03-25T15:08:43;16.80;49.40
65582;DHT22;52231;40.090;18.348;2024-03-25T15:11:10;16.80;49.50
65582;DHT22;52231;40.090;18.348;2024-03-25T15:13:37;16.80;49.00
65582;DHT22;52231;40.090;18.348;2024-03-25T15:16:05;16.90;49.90
65582;DHT22;52231;40.090;18.348;2024-03-25T15:18:32;16.90;49.30
65582;DHT22;52231;40.090;18.348;2024-03-25T15:21:00;16.80;48.40
65582;DHT22;52231;40.090;18.348;2024-03-25T15:23:28;16.80;49.60
65582;DHT22;52231;40.090;18.348;2024-03-25T15:25:55;16.80;50.50